createdAt,value
2022-11-01T00:00:35.923Z,10.42
2022-11-01T00:15:23.790Z,10.67
2022-11-01T00:30:26.200Z,10.45
2022-11-01T00:45:23.746Z,9.90
2022-11-01T01:00:26.648Z,10.23
2022-11-01T01:15:23.761Z,10.12
2022-11-01T01:30:23.959Z,10.27
2022-11-01T01:45:23.697Z,10.08
2022-11-01T02:00:28.153Z,10.27
2022-11-01T02:15:24.386Z,10.00
2022-11-01T02:30:23.858Z,10.07
2022-11-01T02:45:23.576Z,10.27
2022-11-01T03:00:27.207Z,10.12
2022-11-01T03:15:23.963Z,10.33
2022-11-01T03:30:23.916Z,10.23
2022-11-01T03:45:30.076Z,10.47
2022-11-01T04:00:25.873Z,10.63
2022-11-01T04:15:23.639Z,10.52
2022-11-01T04:30:23.826Z,10.60
2022-11-01T04:45:23.989Z,10.62
2022-11-01T05:00:25.963Z,10.70
2022-11-01T05:15:24.339Z,10.62
2022-11-01T05:30:24.186Z,10.70
2022-11-01T05:45:24.014Z,11.00
2022-11-01T06:00:24.027Z,11.15
2022-11-01T06:15:35.742Z,11.10
2022-11-01T06:30:38.095Z,11.17
2022-11-01T06:45:33.176Z,10.95
2022-11-01T07:00:34.614Z,11.05
2022-11-01T07:15:22.939Z,11.23
2022-11-01T07:30:25.059Z,11.60
2022-11-01T07:45:22.953Z,12.02
2022-11-01T08:00:29.737Z,12.83
2022-11-01T08:15:23.451Z,13.43
2022-11-01T08:30:23.838Z,13.68
2022-11-01T08:45:23.516Z,13.98
2022-11-01T09:00:38.481Z,14.10
2022-11-01T09:15:23.462Z,14.23
2022-11-01T09:30:23.440Z,14.50
2022-11-01T09:45:23.381Z,14.90
2022-11-01T10:00:25.858Z,15.47
2022-11-01T10:15:23.491Z,15.83
2022-11-01T10:30:23.759Z,16.33
2022-11-01T10:45:24.079Z,16.47
2022-11-01T11:00:28.751Z,16.70
2022-11-01T11:15:23.603Z,16.80
2022-11-01T11:30:23.697Z,16.77
2022-11-01T11:45:23.625Z,17.07
2022-11-01T12:00:23.679Z,17.05
2022-11-01T12:15:23.988Z,17.03
2022-11-01T12:30:26.969Z,17.25
2022-11-01T12:45:23.694Z,17.50
2022-11-01T13:00:27.952Z,17.65
2022-11-01T13:15:27.333Z,17.65
2022-11-01T13:30:23.956Z,17.67
2022-11-01T13:45:23.801Z,17.78
2022-11-01T14:00:28.689Z,17.80
2022-11-01T14:15:24.024Z,17.67
2022-11-01T14:30:24.404Z,17.70
2022-11-01T14:45:24.002Z,17.57
2022-11-01T15:00:33.394Z,17.47
2022-11-01T15:15:24.676Z,17.30
2022-11-01T15:30:25.742Z,17.05
2022-11-01T15:45:23.946Z,16.87
2022-11-01T16:00:30.645Z,16.67
2022-11-01T16:15:24.107Z,16.38
2022-11-01T16:30:26.505Z,16.10
2022-11-01T16:45:25.222Z,15.75
2022-11-01T17:00:27.273Z,15.15
2022-11-01T17:15:24.142Z,15.33
2022-11-01T17:30:25.417Z,15.00
2022-11-01T17:45:24.125Z,15.18
2022-11-01T18:00:32.941Z,15.07
2022-11-01T18:15:24.167Z,14.93
2022-11-01T18:30:25.245Z,14.73
2022-11-01T18:45:45.516Z,14.32
2022-11-01T19:00:33.190Z,13.70
2022-11-01T19:15:23.378Z,13.38
2022-11-01T19:30:23.263Z,13.00
2022-11-01T19:45:23.521Z,12.88
2022-11-01T20:00:26.135Z,13.00
2022-11-01T20:15:23.381Z,12.38
2022-11-01T20:30:23.449Z,12.20
2022-11-01T20:45:23.365Z,11.73
2022-11-01T21:00:23.627Z,11.48
2022-11-01T21:15:23.397Z,11.05
2022-11-01T21:30:23.486Z,10.93
2022-11-01T21:45:23.667Z,10.62
2022-11-01T22:00:27.583Z,10.42
2022-11-01T22:15:23.635Z,10.17
2022-11-01T22:30:25.150Z,10.40
2022-11-01T22:45:23.531Z,9.65
2022-11-01T23:00:43.893Z,11.50
2022-11-01T23:15:24.518Z,9.07
2022-11-01T23:30:25.651Z,9.15
2022-11-01T23:45:23.755Z,9.53
